createdAt,value
2016-09-24T00:00:56.710Z,17.35
2016-09-24T00:02:07.008Z,17.35
2016-09-24T00:03:17.298Z,17.28
2016-09-24T00:04:27.600Z,17.36
2016-09-24T00:05:37.891Z,17.35
2016-09-24T00:06:48.198Z,17.22
2016-09-24T00:07:58.182Z,17.25
2016-09-24T00:09:08.188Z,17.28
2016-09-24T00:10:18.490Z,17.24
2016-09-24T00:11:28.786Z,17.22
2016-09-24T00:12:38.789Z,17.17
2016-09-24T00:13:49.079Z,17.15
2016-09-24T00:14:58.741Z,17.17
2016-09-24T00:16:09.038Z,17.06
2016-09-24T00:17:19.010Z,17.1
2016-09-24T00:18:29.296Z,17.06
2016-09-24T00:19:39.284Z,16.88
2016-09-24T00:20:49.594Z,16.95
2016-09-24T00:21:59.883Z,16.97
2016-09-24T00:23:10.178Z,16.99
2016-09-24T00:24:20.491Z,16.92
2016-09-24T00:25:30.152Z,16.87
2016-09-24T00:26:40.444Z,16.88
2016-09-24T00:27:50.121Z,16.76
2016-09-24T00:29:00.413Z,16.91
2016-09-24T00:30:10.406Z,16.84
2016-09-24T00:31:20.688Z,16.82
2016-09-24T00:32:30.677Z,16.84
2016-09-24T00:33:40.672Z,16.73
2016-09-24T00:34:50.976Z,16.76
2016-09-24T00:36:01.254Z,16.8
2016-09-24T00:37:11.539Z,16.72
2016-09-24T00:38:21.831Z,16.73
2016-09-24T00:39:32.109Z,16.69
2016-09-24T00:40:42.090Z,16.76
2016-09-24T00:41:52.380Z,16.7
2016-09-24T00:43:02.364Z,16.7
2016-09-24T00:44:12.338Z,16.69
2016-09-24T00:45:22.642Z,16.57
2016-09-24T00:46:32.314Z,16.57
2016-09-24T00:47:42.299Z,16.59
2016-09-24T00:48:51.963Z,16.59
2016-09-24T00:50:01.628Z,16.59
2016-09-24T00:51:11.623Z,16.55
2016-09-24T00:52:21.896Z,16.51
2016-09-24T00:53:32.174Z,16.47
2016-09-24T00:54:42.451Z,16.49
2016-09-24T00:55:52.737Z,16.49
2016-09-24T00:57:02.727Z,16.37
2016-09-24T00:58:13.010Z,16.44
2016-09-24T00:59:23.301Z,16.4
2016-09-24T01:00:33.583Z,16.4
2016-09-24T01:01:43.867Z,16.37
2016-09-24T01:09:27.274Z,16.42
2016-09-24T01:10:37.772Z,16.42
2016-09-24T01:11:47.755Z,16.4
2016-09-24T01:12:57.415Z,16.52
2016-09-24T01:14:07.406Z,16.49
2016-09-24T01:15:17.709Z,16.44
2016-09-24T01:16:28.002Z,16.51
2016-09-24T01:17:37.979Z,16.44
2016-09-24T01:18:47.961Z,16.4
2016-09-24T01:19:58.470Z,16.42
2016-09-24T01:21:08.772Z,16.3
2016-09-24T01:22:19.051Z,16.37
2016-09-24T01:23:29.024Z,16.32
2016-09-24T01:24:39.314Z,16.39
2016-09-24T01:25:49.294Z,16.39
2016-09-24T01:26:59.589Z,16.33
2016-09-24T01:28:09.566Z,16.21
2016-09-24T01:29:19.849Z,16.25
2016-09-24T01:30:30.130Z,16.27
2016-09-24T01:31:40.420Z,16.22
2016-09-24T01:32:50.712Z,16.25
2016-09-24T01:34:00.693Z,16.18
2016-09-24T01:35:10.964Z,16.17
2016-09-24T01:36:20.952Z,16.17
2016-09-24T01:37:30.634Z,16.13
2016-09-24T01:38:40.914Z,16.14
2016-09-24T01:39:50.918Z,16.14
2016-09-24T01:41:01.210Z,16.04
2016-09-24T01:42:11.186Z,16.1
2016-09-24T01:43:21.471Z,16.06
2016-09-24T01:44:31.453Z,15.99
2016-09-24T01:45:41.741Z,16.07
2016-09-24T01:46:52.020Z,15.95
2016-09-24T01:48:02.299Z,15.93
2016-09-24T01:49:12.262Z,16
2016-09-24T01:50:22.474Z,15.93
2016-09-24T01:51:32.456Z,15.95
2016-09-24T01:52:42.447Z,15.96
2016-09-24T01:53:52.124Z,15.89
2016-09-24T01:55:02.400Z,15.89
2016-09-24T01:56:12.076Z,15.8
2016-09-24T01:57:22.365Z,15.81
2016-09-24T01:58:32.036Z,15.8
2016-09-24T01:59:42.327Z,15.74
2016-09-24T02:00:52.310Z,15.7
2016-09-24T02:02:02.287Z,15.65
2016-09-24T02:03:12.591Z,15.71
2016-09-24T02:04:22.575Z,15.63
2016-09-24T02:05:32.561Z,15.65
2016-09-24T02:06:42.543Z,15.59
2016-09-24T02:07:52.519Z,15.59
2016-09-24T02:09:01.878Z,15.63
2016-09-24T02:10:12.158Z,15.56
2016-09-24T02:11:22.457Z,15.49
2016-09-24T02:12:32.441Z,15.4
2016-09-24T02:13:42.423Z,15.43
2016-09-24T02:14:52.708Z,15.33
2016-09-24T02:16:02.992Z,15.2
2016-09-24T02:17:12.983Z,15.27
2016-09-24T02:18:22.957Z,15.26
2016-09-24T02:19:33.230Z,15.13
2016-09-24T02:20:43.523Z,15.04
2016-09-24T02:21:53.812Z,15.04
2016-09-24T02:23:04.104Z,15
2016-09-24T02:24:14.091Z,15.05
2016-09-24T02:25:24.388Z,15.02
2016-09-24T02:26:34.670Z,15.01
2016-09-24T02:27:44.950Z,14.97
2016-09-24T02:28:55.247Z,14.98
2016-09-24T02:30:05.263Z,14.95
2016-09-24T02:31:15.241Z,14.85
2016-09-24T02:32:24.915Z,14.86
2016-09-24T02:33:35.192Z,14.89
2016-09-24T02:34:45.483Z,14.89
2016-09-24T02:35:55.779Z,14.87
2016-09-24T02:37:06.060Z,14.95
2016-09-24T02:38:16.363Z,14.85
2016-09-24T02:39:26.046Z,14.86
2016-09-24T02:40:36.331Z,14.89
2016-09-24T02:41:46.309Z,14.89
2016-09-24T02:42:56.311Z,14.89
2016-09-24T02:44:06.608Z,14.87
2016-09-24T02:45:16.902Z,14.89
2016-09-24T02:46:27.185Z,14.87
2016-09-24T02:47:37.476Z,14.82
2016-09-24T02:48:47.791Z,14.87
2016-09-24T02:49:58.072Z,14.93
2016-09-24T02:51:08.068Z,14.85
2016-09-24T02:52:18.368Z,14.85
2016-09-24T02:53:28.663Z,14.85
2016-09-24T02:54:38.651Z,14.85
2016-09-24T02:55:48.945Z,14.83
2016-09-24T02:56:59.215Z,14.79
2016-09-24T02:58:09.492Z,14.8
2016-09-24T02:59:19.778Z,14.83
2016-09-24T03:00:30.082Z,14.67
2016-09-24T03:32:29.567Z,10.98
2016-09-24T03:33:39.844Z,10.97
2016-09-24T03:34:50.120Z,10.9
2016-09-24T03:36:00.096Z,11
2016-09-24T03:37:09.750Z,11.08
2016-09-24T03:38:20.052Z,11.21
2016-09-24T03:39:30.038Z,11.24
2016-09-24T03:40:40.319Z,11.28
2016-09-24T03:41:50.601Z,11.49
2016-09-24T03:43:00.884Z,11.67
2016-09-24T03:44:11.181Z,11.78
2016-09-24T03:45:21.166Z,11.95
2016-09-24T03:46:31.384Z,12.15
2016-09-24T03:47:41.375Z,12.22
2016-09-24T03:48:51.642Z,12.41
2016-09-24T03:50:01.318Z,12.47
2016-09-24T03:51:10.982Z,12.59
2016-09-24T03:52:21.282Z,12.71
2016-09-24T03:53:30.643Z,12.89
2016-09-24T03:54:40.627Z,12.91
2016-09-24T03:55:50.596Z,13.02
2016-09-24T03:57:00.579Z,13.03
2016-09-24T03:58:10.235Z,13.14
2016-09-24T03:59:20.513Z,13.27
2016-09-24T04:00:30.487Z,13.35
2016-09-24T04:01:40.465Z,13.37
2016-09-24T04:02:50.448Z,13.48
2016-09-24T04:04:00.417Z,13.53
2016-09-24T04:05:10.094Z,13.6
2016-09-24T04:06:20.382Z,13.51
2016-09-24T04:07:30.368Z,13.63
2016-09-24T04:08:40.664Z,13.6
2016-09-24T04:09:50.958Z,13.72
2016-09-24T04:11:00.919Z,13.72
2016-09-24T04:12:10.891Z,13.76
2016-09-24T04:13:21.181Z,13.69
2016-09-24T04:14:31.173Z,13.72
2016-09-24T04:15:41.171Z,13.76
2016-09-24T04:16:50.833Z,13.73
2016-09-24T04:18:00.193Z,13.84
2016-09-24T04:19:10.478Z,13.9
2016-09-24T04:20:20.763Z,13.94
2016-09-24T04:21:30.739Z,13.88
2016-09-24T04:22:41.026Z,13.97
2016-09-24T04:23:51.326Z,13.99
2016-09-24T04:25:01.292Z,13.95
2016-09-24T04:26:11.255Z,13.94
2016-09-24T04:27:21.547Z,13.97
2016-09-24T04:28:31.528Z,13.95
2016-09-24T04:29:41.505Z,13.93
2016-09-24T04:30:51.796Z,13.95
2016-09-24T04:32:01.463Z,13.95
2016-09-24T04:33:11.136Z,13.95
2016-09-24T04:34:21.118Z,13.97
2016-09-24T04:35:31.084Z,13.95
2016-09-24T04:36:41.068Z,13.9
2016-09-24T04:37:51.048Z,13.9
2016-09-24T04:39:01.338Z,13.95
2016-09-24T04:40:11.629Z,13.84
2016-09-24T04:41:21.312Z,13.84
2016-09-24T04:42:31.603Z,13.88
2016-09-24T04:43:41.574Z,13.81
2016-09-24T04:44:51.542Z,13.93
2016-09-24T04:46:01.508Z,13.93
2016-09-24T04:47:11.804Z,13.9
2016-09-24T04:48:22.077Z,13.88
2016-09-24T04:49:31.748Z,13.99
2016-09-24T04:50:42.055Z,13.95
2016-09-24T04:51:52.033Z,13.95
2016-09-24T04:53:02.322Z,14.01
2016-09-24T04:54:12.313Z,14.01
2016-09-24T04:55:22.284Z,13.95
2016-09-24T04:56:32.573Z,13.95
2016-09-24T04:57:42.863Z,13.9
2016-09-24T04:58:52.843Z,13.95
2016-09-24T05:00:03.173Z,13.97
2016-09-24T05:01:13.145Z,13.99
2016-09-24T05:02:23.131Z,13.94
2016-09-24T05:03:33.103Z,13.94
2016-09-24T05:04:42.764Z,13.94
2016-09-24T05:05:52.751Z,14.05
2016-09-24T05:07:02.732Z,14.08
2016-09-24T05:08:12.698Z,14.06
2016-09-24T05:09:21.776Z,14.12
2016-09-24T05:10:32.063Z,14.15
2016-09-24T05:11:41.723Z,14.21
2016-09-24T05:12:51.390Z,14.31
2016-09-24T05:14:01.377Z,14.19
2016-09-24T05:15:11.664Z,14.28
2016-09-24T05:16:21.356Z,14.31
2016-09-24T05:17:31.031Z,14.33
2016-09-24T05:18:41.313Z,14.27
2016-09-24T05:19:51.314Z,14.42
2016-09-24T05:21:01.596Z,14.44
2016-09-24T05:22:11.272Z,14.49
2016-09-24T05:23:21.255Z,14.59
2016-09-24T05:24:31.550Z,14.71
2016-09-24T05:25:41.522Z,14.66
2016-09-24T05:26:51.511Z,14.69
2016-09-24T05:28:01.496Z,14.7
2016-09-24T05:29:11.478Z,14.85
2016-09-24T05:30:21.457Z,14.75
2016-09-24T05:31:31.445Z,14.9
2016-09-24T05:32:41.117Z,14.94
2016-09-24T05:33:51.408Z,14.9
2016-09-24T05:35:01.689Z,15.01
2016-09-24T05:36:11.671Z,15
2016-09-24T05:37:21.969Z,15.1
2016-09-24T05:38:32.244Z,15.08
2016-09-24T05:39:42.226Z,15.15
2016-09-24T05:40:52.199Z,15.18
2016-09-24T05:42:02.175Z,15.33
2016-09-24T05:43:11.852Z,15.27
2016-09-24T05:44:22.138Z,15.27
2016-09-24T05:45:32.424Z,15.38
2016-09-24T05:46:42.423Z,15.31
2016-09-24T05:47:52.699Z,15.35
2016-09-24T05:49:02.674Z,15.43
2016-09-24T05:50:12.655Z,15.44
2016-09-24T05:51:22.327Z,15.52
2016-09-24T05:52:32.643Z,15.53
2016-09-24T05:53:42.616Z,15.59
2016-09-24T05:54:52.602Z,15.58
2016-09-24T05:56:02.579Z,15.68
2016-09-24T05:57:12.580Z,15.71
2016-09-24T05:58:22.897Z,15.81
2016-09-24T05:59:32.872Z,15.88
2016-09-24T06:00:42.870Z,15.99
2016-09-24T06:01:52.851Z,15.96
2016-09-24T06:03:02.867Z,16.06
2016-09-24T06:04:12.848Z,16.13
2016-09-24T06:05:22.824Z,16.25
2016-09-24T06:06:33.112Z,16.21
2016-09-24T06:07:42.785Z,16.3
2016-09-24T06:08:52.761Z,16.37
2016-09-24T06:10:02.763Z,16.36
2016-09-24T06:11:13.061Z,16.44
2016-09-24T06:12:23.061Z,16.47
2016-09-24T06:13:33.359Z,16.62
2016-09-24T06:14:43.335Z,16.62
2016-09-24T06:15:53.311Z,16.62
2016-09-24T06:17:02.998Z,16.72
2016-09-24T06:18:12.972Z,16.74
2016-09-24T06:19:22.958Z,16.85
2016-09-24T06:20:33.263Z,16.9
2016-09-24T06:21:43.550Z,16.85
2016-09-24T06:22:53.872Z,16.92
2016-09-24T06:24:03.248Z,16.9
2016-09-24T06:25:13.255Z,16.99
2016-09-24T06:26:23.527Z,17.07
2016-09-24T06:27:33.497Z,17.12
2016-09-24T06:28:43.469Z,17.21
2016-09-24T06:29:53.453Z,17.35
2016-09-24T06:31:03.454Z,17.39
2016-09-24T06:32:13.445Z,17.42
2016-09-24T06:33:23.411Z,17.4
2016-09-24T06:34:33.387Z,17.5
2016-09-24T06:35:43.384Z,17.52
2016-09-24T06:36:53.365Z,17.57
2016-09-24T06:38:03.668Z,17.69
2016-09-24T06:39:13.660Z,17.66
2016-09-24T06:40:23.945Z,17.8
2016-09-24T06:41:33.607Z,17.79
2016-09-24T06:42:43.599Z,17.94
2016-09-24T06:43:53.255Z,17.9
2016-09-24T06:45:03.553Z,17.95
2016-09-24T06:46:13.520Z,18.1
2016-09-24T06:47:23.193Z,18.14
2016-09-24T06:48:33.173Z,18.23
2016-09-24T06:49:42.881Z,18.2
2016-09-24T06:50:52.871Z,18.27
2016-09-24T06:52:02.852Z,18.44
2016-09-24T06:53:12.241Z,18.42
2016-09-24T06:54:22.526Z,18.49
2016-09-24T06:55:32.822Z,18.59
2016-09-24T06:56:42.811Z,18.68
2016-09-24T06:57:53.097Z,18.71
2016-09-24T06:59:03.397Z,18.79
2016-09-24T07:00:13.694Z,18.91
2016-09-24T07:01:23.675Z,18.97
2016-09-24T07:02:33.961Z,18.89
2016-09-24T07:03:43.638Z,19.05
2016-09-24T07:04:53.655Z,19.15
2016-09-24T07:06:03.957Z,19.1
2016-09-24T07:07:14.252Z,19.13
2016-09-24T07:08:24.546Z,19.23
2016-09-24T07:09:34.832Z,19.2
2016-09-24T07:10:45.119Z,19.31
2016-09-24T07:11:55.415Z,19.37
2016-09-24T07:13:05.395Z,19.37
2016-09-24T07:14:15.395Z,19.47
2016-09-24T07:15:25.392Z,19.46
2016-09-24T07:16:35.693Z,19.56
2016-09-24T07:17:45.979Z,19.63
2016-09-24T07:18:55.961Z,19.74
2016-09-24T07:20:06.273Z,19.83
2016-09-24T07:21:16.575Z,19.97
2016-09-24T07:22:26.874Z,19.98
2016-09-24T07:23:36.558Z,20
2016-09-24T07:24:45.924Z,20.12
2016-09-24T07:25:55.910Z,20.16
2016-09-24T07:27:06.203Z,20.16
2016-09-24T07:28:16.480Z,20.26
2016-09-24T07:29:26.803Z,20.29
2016-09-24T07:30:37.081Z,20.26
2016-09-24T07:31:47.378Z,20.38
2016-09-24T07:32:57.367Z,20.38
2016-09-24T07:34:07.688Z,20.41
2016-09-24T07:35:17.973Z,20.44
2016-09-24T07:36:27.979Z,20.53
2016-09-24T07:37:38.270Z,20.49
2016-09-24T07:38:48.254Z,20.56
2016-09-24T07:39:58.561Z,20.67
2016-09-24T07:41:08.848Z,20.82
2016-09-24T07:42:18.540Z,20.88
2016-09-24T07:43:28.533Z,20.93
2016-09-24T07:44:38.222Z,21.01
2016-09-24T07:45:48.209Z,21.01
2016-09-24T07:46:58.491Z,20.91
2016-09-24T07:48:08.184Z,21.09
2016-09-24T07:49:18.170Z,21.12
2016-09-24T07:50:28.451Z,21.28
2016-09-24T07:51:38.778Z,21.45
2016-09-24T07:52:49.100Z,21.51
2016-09-24T07:53:58.780Z,21.58
2016-09-24T07:55:08.458Z,21.62
2016-09-24T07:56:18.776Z,21.66
2016-09-24T07:57:29.071Z,21.78
2016-09-24T07:58:39.358Z,21.89
2016-09-24T07:59:49.708Z,21.83
2016-09-24T08:01:00.015Z,21.94
2016-09-24T08:02:10.017Z,22.05
2016-09-24T08:03:20.321Z,22.07
2016-09-24T08:04:30.323Z,22
2016-09-24T08:05:40.614Z,22.08
2016-09-24T08:06:49.980Z,22.09
2016-09-24T08:08:00.267Z,22.23
2016-09-24T08:09:10.621Z,22.42
2016-09-24T08:10:20.911Z,22.34
2016-09-24T08:11:31.213Z,22.57
2016-09-24T08:12:41.521Z,22.51
2016-09-24T08:13:51.821Z,22.55
2016-09-24T08:15:02.112Z,22.67
2016-09-24T08:16:11.472Z,22.63
2016-09-24T08:17:21.762Z,22.69
2016-09-24T08:18:31.762Z,22.79
2016-09-24T08:19:42.057Z,22.84
2016-09-24T08:20:52.047Z,22.91
2016-09-24T08:22:02.334Z,22.99
2016-09-24T08:23:11.710Z,23.19
2016-09-24T08:24:21.717Z,23.19
2016-09-24T08:25:31.703Z,23.25
2016-09-24T08:26:42.014Z,23.26
2016-09-24T08:27:52.309Z,23.48
2016-09-24T08:29:02.308Z,23.48
2016-09-24T08:30:11.989Z,23.48
2016-09-24T08:31:21.992Z,23.66
2016-09-24T08:32:31.669Z,23.57
2016-09-24T08:33:41.975Z,23.66
2016-09-24T08:34:52.273Z,23.78
2016-09-24T08:36:02.594Z,23.9
2016-09-24T08:37:12.282Z,23.94
2016-09-24T08:38:22.277Z,24.03
2016-09-24T08:39:32.272Z,24.17
2016-09-24T08:40:42.250Z,24.3
2016-09-24T08:41:52.562Z,24.44
2016-09-24T08:43:02.233Z,24.51
2016-09-24T08:44:12.535Z,24.67
2016-09-24T08:45:21.907Z,24.74
2016-09-24T08:46:31.914Z,24.78
2016-09-24T08:47:42.242Z,24.89
2016-09-24T08:48:52.227Z,24.94
2016-09-24T08:50:02.520Z,25
2016-09-24T08:51:12.510Z,25.14
2016-09-24T08:52:22.182Z,25.22
2016-09-24T08:53:32.494Z,25.29
2016-09-24T08:54:42.471Z,25.44
2016-09-24T08:55:52.764Z,25.54
2016-09-24T08:57:02.755Z,25.62
2016-09-24T08:58:13.079Z,25.64
2016-09-24T08:59:22.468Z,25.75
2016-09-24T09:00:32.769Z,25.71
2016-09-24T09:01:43.071Z,25.69
2016-09-24T09:02:53.367Z,25.6
2016-09-24T09:04:03.670Z,25.63
2016-09-24T09:05:13.956Z,25.74
2016-09-24T09:06:23.329Z,25.86
2016-09-24T09:07:33.624Z,25.97
2016-09-24T09:08:43.595Z,25.89
2016-09-24T09:09:53.608Z,25.88
2016-09-24T09:11:03.886Z,26.09
2016-09-24T09:12:13.588Z,26.11
2016-09-24T09:13:23.584Z,26.11
2016-09-24T09:14:33.571Z,26.3
2016-09-24T09:15:43.555Z,26.17
2016-09-24T09:16:53.867Z,26.11
2016-09-24T09:18:03.841Z,26.12
2016-09-24T09:19:14.142Z,26.16
2016-09-24T09:20:24.434Z,26.24
2016-09-24T09:21:34.734Z,26.32
2016-09-24T09:22:45.044Z,26.44
2016-09-24T09:23:55.359Z,26.45
2016-09-24T09:25:05.658Z,26.41
2016-09-24T09:26:15.639Z,26.49
2016-09-24T09:27:25.640Z,26.41
2016-09-24T09:28:35.636Z,26.44
2016-09-24T09:29:45.944Z,26.53
2016-09-24T09:30:56.234Z,26.56
2016-09-24T09:32:06.517Z,26.5
2016-09-24T09:33:16.503Z,26.59
2016-09-24T09:34:26.802Z,26.63
2016-09-24T09:35:37.103Z,26.63
2016-09-24T09:36:47.090Z,26.59
2016-09-24T09:37:56.761Z,26.69
2016-09-24T09:39:06.761Z,26.69
2016-09-24T09:40:17.053Z,26.79
2016-09-24T09:41:27.038Z,26.84
2016-09-24T09:42:37.331Z,26.97
2016-09-24T09:43:47.629Z,26.97
2016-09-24T09:44:57.320Z,27.09
2016-09-24T09:46:07.316Z,27.15
2016-09-24T09:47:17.625Z,27.26
2016-09-24T09:48:27.626Z,27.42
2016-09-24T09:49:37.617Z,27.43
2016-09-24T09:50:47.609Z,27.59
2016-09-24T09:51:57.601Z,27.69
2016-09-24T09:53:07.607Z,27.61
2016-09-24T09:54:17.925Z,27.69
2016-09-24T09:55:28.225Z,27.66
2016-09-24T09:56:38.217Z,27.83
2016-09-24T09:57:48.517Z,27.68
2016-09-24T09:58:58.825Z,27.69
2016-09-24T10:00:09.111Z,27.74
2016-09-24T10:01:19.125Z,27.83
2016-09-24T10:02:29.440Z,27.89
2016-09-24T10:03:39.719Z,27.94
2016-09-24T10:04:49.703Z,27.98
2016-09-24T10:05:59.997Z,28.05
2016-09-24T10:07:09.690Z,28.14
2016-09-24T10:08:19.981Z,28.23
2016-09-24T10:09:29.961Z,28.39
2016-09-24T10:10:40.256Z,28.57
2016-09-24T10:11:50.551Z,28.68
2016-09-24T10:13:00.868Z,28.82
2016-09-24T10:14:11.169Z,28.75
2016-09-24T10:15:21.173Z,28.79
2016-09-24T10:16:31.152Z,28.94
2016-09-24T10:17:41.139Z,29.02
2016-09-24T10:18:50.827Z,28.95
2016-09-24T10:20:01.127Z,28.95
2016-09-24T10:21:11.421Z,28.95
2016-09-24T10:22:21.406Z,29.02
2016-09-24T10:23:31.077Z,29.02
2016-09-24T10:24:41.409Z,29.15
2016-09-24T10:25:51.703Z,29.32
2016-09-24T10:27:02.010Z,29.35
2016-09-24T10:28:12.311Z,29.47
2016-09-24T10:29:22.623Z,29.43
2016-09-24T10:30:32.616Z,29.72
2016-09-24T10:31:42.302Z,29.89
2016-09-24T10:32:52.288Z,30.09
2016-09-24T10:34:02.596Z,30.16
2016-09-24T10:35:12.900Z,30.24
2016-09-24T10:36:23.188Z,30.25
2016-09-24T10:37:33.188Z,30.25
2016-09-24T10:38:43.196Z,30.28
2016-09-24T10:39:53.487Z,30.39
2016-09-24T10:41:03.783Z,30.49
2016-09-24T10:42:14.102Z,30.47
2016-09-24T10:43:24.412Z,30.54
2016-09-24T10:44:34.716Z,30.42
2016-09-24T10:45:45.034Z,30.29
2016-09-24T10:46:55.332Z,30.18
2016-09-24T10:48:05.643Z,30.11
2016-09-24T10:49:15.941Z,30.06
2016-09-24T10:50:26.212Z,29.89
2016-09-24T10:51:36.212Z,29.75
2016-09-24T10:52:46.219Z,29.67
2016-09-24T10:53:55.916Z,29.48
2016-09-24T10:55:05.909Z,29.33
2016-09-24T10:56:15.912Z,29.36
2016-09-24T10:57:26.201Z,29.43
2016-09-24T10:58:36.186Z,29.45
2016-09-24T10:59:46.494Z,29.61
2016-09-24T11:00:56.800Z,29.69
2016-09-24T11:02:06.783Z,29.72
2016-09-24T11:03:17.098Z,29.77
2016-09-24T11:04:27.403Z,29.91
2016-09-24T11:05:37.396Z,29.91
2016-09-24T11:06:47.705Z,29.85
2016-09-24T11:07:57.692Z,29.91
2016-09-24T11:09:07.708Z,29.91
2016-09-24T11:10:17.991Z,29.92
2016-09-24T11:11:28.319Z,29.88
2016-09-24T11:12:38.299Z,29.87
2016-09-24T11:13:48.586Z,29.88
2016-09-24T11:14:58.907Z,30
2016-09-24T11:16:09.213Z,29.95
2016-09-24T11:17:19.528Z,29.87
2016-09-24T11:18:29.823Z,29.76
2016-09-24T11:19:40.119Z,29.77
2016-09-24T11:20:50.408Z,29.7
2016-09-24T11:22:00.389Z,29.87
2016-09-24T11:23:10.377Z,29.92
2016-09-24T11:24:20.678Z,30.11
2016-09-24T11:25:30.973Z,30.06
2016-09-24T11:26:40.653Z,30.22
2016-09-24T11:27:50.963Z,30.34
2016-09-24T11:29:01.261Z,30.56
2016-09-24T11:30:11.773Z,30.6
2016-09-24T11:31:22.085Z,30.6
2016-09-24T11:32:32.399Z,30.67
2016-09-24T11:33:42.709Z,30.51
2016-09-24T11:34:52.724Z,30.71
2016-09-24T11:36:02.712Z,30.66
2016-09-24T11:37:12.733Z,30.64
2016-09-24T11:38:23.045Z,30.56
2016-09-24T11:39:33.043Z,30.52
2016-09-24T11:40:43.393Z,30.48
2016-09-24T11:41:53.689Z,30.32
2016-09-24T11:43:03.990Z,30.35
2016-09-24T11:44:14.017Z,30.31
2016-09-24T11:45:24.317Z,30.25
2016-09-24T11:46:34.642Z,30.26
2016-09-24T11:47:44.973Z,30.28
2016-09-24T11:48:55.317Z,30.26
2016-09-24T11:50:05.617Z,30.26
2016-09-24T11:51:15.637Z,30.31
2016-09-24T11:52:25.951Z,30.25
2016-09-24T11:53:35.959Z,30.21
2016-09-24T11:54:46.262Z,30.21
2016-09-24T11:55:56.563Z,30.25
2016-09-24T11:57:06.563Z,30.32
2016-09-24T11:58:16.565Z,30.32
2016-09-24T11:59:26.867Z,30.47
2016-09-24T12:00:36.859Z,30.47
2016-09-24T12:01:47.166Z,30.57
2016-09-24T12:02:56.547Z,30.54
2016-09-24T12:04:06.851Z,30.57
2016-09-24T12:05:17.153Z,30.64
2016-09-24T12:06:27.472Z,30.57
2016-09-24T12:07:37.463Z,30.64
2016-09-24T12:08:47.776Z,30.67
2016-09-24T12:09:57.802Z,30.77
2016-09-24T12:11:08.121Z,30.69
2016-09-24T12:12:17.799Z,30.75
2016-09-24T12:13:27.490Z,30.81
2016-09-24T12:14:37.794Z,30.75
2016-09-24T12:15:48.082Z,30.71
2016-09-24T12:16:58.106Z,30.71
2016-09-24T12:18:08.420Z,30.75
2016-09-24T12:19:18.423Z,30.69
2016-09-24T12:20:28.728Z,30.67
2016-09-24T12:21:38.731Z,30.7
2016-09-24T12:22:49.021Z,30.69
2016-09-24T12:23:59.334Z,30.78
2016-09-24T12:25:09.645Z,30.89
2016-09-24T12:26:19.974Z,31.03
2016-09-24T12:27:30.280Z,30.96
2016-09-24T12:28:40.593Z,31.06
2016-09-24T12:29:50.600Z,31.13
2016-09-24T12:31:00.891Z,31.18
2016-09-24T12:32:11.196Z,31.3
2016-09-24T12:33:21.204Z,31.4
2016-09-24T12:34:31.521Z,31.4
2016-09-24T12:35:41.817Z,31.36
2016-09-24T12:36:52.132Z,31.33
2016-09-24T12:38:02.132Z,31.19
2016-09-24T12:39:12.457Z,31.31
2016-09-24T12:40:22.750Z,31.28
2016-09-24T12:41:33.054Z,31.19
2016-09-24T12:42:43.357Z,31.12
2016-09-24T12:43:53.349Z,31.13
2016-09-24T12:45:03.358Z,31.16
2016-09-24T12:46:13.366Z,31.19
2016-09-24T12:47:23.358Z,31.28
2016-09-24T12:48:33.665Z,31.13
2016-09-24T12:49:43.342Z,31.03
2016-09-24T12:50:53.644Z,30.94
2016-09-24T12:52:03.716Z,30.89
2016-09-24T12:53:14.012Z,30.82
2016-09-24T12:54:24.019Z,30.81
2016-09-24T12:55:34.018Z,30.69
2016-09-24T12:56:44.371Z,30.73
2016-09-24T12:57:54.355Z,30.69
2016-09-24T12:59:04.670Z,30.67
2016-09-24T13:00:14.971Z,30.64
2016-09-24T13:01:25.266Z,30.7
2016-09-24T13:02:35.300Z,30.71
2016-09-24T13:03:45.594Z,30.67
2016-09-24T13:04:55.878Z,30.57
2016-09-24T13:06:06.171Z,30.49
2016-09-24T13:07:16.191Z,30.47
2016-09-24T13:08:26.485Z,30.49
2016-09-24T13:09:36.481Z,30.37
2016-09-24T13:10:46.789Z,30.29
2016-09-24T13:11:57.097Z,30.28
2016-09-24T13:13:07.084Z,30.21
2016-09-24T13:14:17.386Z,30.14
2016-09-24T13:15:27.701Z,30.11
2016-09-24T13:16:38.015Z,30.14
2016-09-24T13:17:48.042Z,30.13
2016-09-24T13:18:58.037Z,30.13
2016-09-24T13:20:08.039Z,30.11
2016-09-24T13:21:18.332Z,30.02
2016-09-24T13:22:28.652Z,29.98
2016-09-24T13:23:38.639Z,30
2016-09-24T13:24:48.622Z,30.02
2016-09-24T13:25:58.918Z,29.97
2016-09-24T13:27:09.206Z,30.02
2016-09-24T13:28:19.501Z,30.04
2016-09-24T13:29:29.173Z,30.1
2016-09-24T13:30:39.464Z,30.14
2016-09-24T13:31:49.765Z,30.18
2016-09-24T13:32:59.435Z,30.19
2016-09-24T13:34:09.349Z,30.13
2016-09-24T13:35:19.653Z,30.04
2016-09-24T13:36:29.951Z,30.11
2016-09-24T13:37:40.258Z,30.1
2016-09-24T13:38:50.258Z,30.09
2016-09-24T13:40:00.556Z,30.14
2016-09-24T13:41:10.254Z,30.04
2016-09-24T13:42:20.240Z,29.85
2016-09-24T13:43:30.542Z,29.89
2016-09-24T13:44:40.549Z,29.84
2016-09-24T13:45:50.550Z,29.75
2016-09-24T13:47:00.526Z,29.67
2016-09-24T13:48:10.523Z,29.61
2016-09-24T13:49:20.515Z,29.51
2016-09-24T13:50:30.500Z,29.45
2016-09-24T13:51:40.205Z,29.36
2016-09-24T13:52:50.516Z,29.23
2016-09-24T13:54:00.525Z,29.14
2016-09-24T13:55:10.819Z,29.06
2016-09-24T13:56:20.499Z,28.94
2016-09-24T13:57:30.793Z,28.86
2016-09-24T13:58:41.112Z,28.92
2016-09-24T13:59:51.415Z,28.88
2016-09-24T14:01:01.398Z,28.86
2016-09-24T14:02:11.684Z,28.83
2016-09-24T14:03:22.040Z,28.85
2016-09-24T14:04:32.347Z,28.8
2016-09-24T14:05:42.657Z,28.73
2016-09-24T14:06:52.638Z,28.76
2016-09-24T14:08:02.652Z,28.79
2016-09-24T14:09:12.952Z,28.83
2016-09-24T14:10:22.957Z,28.85
2016-09-24T14:11:32.955Z,28.83
2016-09-24T14:12:43.266Z,28.91
2016-09-24T14:13:52.950Z,28.88
2016-09-24T14:15:03.250Z,28.83
2016-09-24T14:16:13.557Z,28.86
2016-09-24T14:17:23.598Z,28.85
2016-09-24T14:18:33.898Z,28.82
2016-09-24T14:19:44.195Z,28.85
2016-09-24T14:20:54.491Z,28.91
2016-09-24T14:22:04.800Z,28.85
2016-09-24T14:23:14.786Z,28.82
2016-09-24T14:24:25.078Z,28.7
2016-09-24T14:25:35.375Z,28.75
2016-09-24T14:26:45.664Z,28.68
2016-09-24T14:27:55.967Z,28.67
2016-09-24T14:29:05.963Z,28.64
2016-09-24T14:30:16.251Z,28.61
2016-09-24T14:31:25.939Z,28.57
2016-09-24T14:32:36.234Z,28.53
2016-09-24T14:33:46.525Z,28.45
2016-09-24T14:34:56.528Z,28.36
2016-09-24T14:36:06.845Z,28.3
2016-09-24T14:37:17.247Z,28.28
2016-09-24T14:38:27.548Z,28.17
2016-09-24T14:39:37.535Z,28.18
2016-09-24T14:40:47.523Z,28.09
2016-09-24T14:41:57.514Z,28.14
2016-09-24T14:43:07.815Z,28.09
2016-09-24T14:44:17.797Z,27.98
2016-09-24T14:45:28.118Z,28.03
2016-09-24T14:46:38.425Z,27.91
2016-09-24T14:47:48.733Z,28.02
2016-09-24T14:48:59.028Z,27.83
2016-09-24T14:50:09.334Z,27.84
2016-09-24T14:51:19.323Z,27.66
2016-09-24T14:52:29.636Z,27.61
2016-09-24T14:53:39.937Z,27.53
2016-09-24T14:54:49.927Z,27.45
2016-09-24T14:56:00.238Z,27.31
2016-09-24T14:57:10.542Z,27.21
2016-09-24T14:58:20.857Z,27.16
2016-09-24T14:59:31.169Z,27.09
2016-09-24T15:00:41.471Z,27
2016-09-24T15:01:51.769Z,26.99
2016-09-24T15:03:01.769Z,27
2016-09-24T15:04:12.083Z,26.91
2016-09-24T15:05:22.384Z,26.94
2016-09-24T15:06:32.399Z,26.91
2016-09-24T15:07:42.696Z,26.89
2016-09-24T15:08:52.679Z,26.87
2016-09-24T15:10:02.994Z,26.9
2016-09-24T15:11:13.303Z,26.97
2016-09-24T15:12:23.310Z,26.96
2016-09-24T15:13:33.314Z,26.93
2016-09-24T15:14:43.311Z,26.91
2016-09-24T15:15:53.299Z,26.94
2016-09-24T15:17:03.583Z,26.91
2016-09-24T15:18:13.572Z,26.96
2016-09-24T15:19:23.560Z,26.97
2016-09-24T15:20:33.894Z,26.96
2016-09-24T15:21:43.587Z,26.94
2016-09-24T15:22:53.890Z,27.04
2016-09-24T15:24:04.202Z,26.96
2016-09-24T15:25:14.517Z,26.93
2016-09-24T15:26:24.833Z,26.97
2016-09-24T15:27:35.136Z,26.99
2016-09-24T15:28:45.428Z,26.96
2016-09-24T15:29:55.730Z,26.87
2016-09-24T15:31:06.035Z,26.93
2016-09-24T15:32:16.025Z,26.79
2016-09-24T15:33:26.304Z,26.72
2016-09-24T15:34:36.597Z,26.63
2016-09-24T15:35:46.889Z,26.64
2016-09-24T15:36:57.197Z,26.6
2016-09-24T15:38:07.505Z,26.45
2016-09-24T15:39:17.486Z,26.41
2016-09-24T15:40:27.483Z,26.32
2016-09-24T15:41:37.157Z,26.27
2016-09-24T15:42:47.453Z,26.26
2016-09-24T15:43:57.991Z,26.15